createdAt,value
2023-05-25T16:02:17.096Z,209.33
2023-05-25T16:03:49.380Z,191.67
2023-05-25T16:05:21.705Z,209.00
2023-05-25T16:06:54.093Z,201.67
2023-05-25T16:08:26.510Z,197.33
2023-05-25T16:09:58.622Z,185.00
2023-05-25T16:11:32.145Z,188.00
2023-05-25T16:13:04.292Z,175.75
2023-05-25T16:14:36.319Z,180.25
2023-05-25T16:16:08.434Z,179.00
2023-05-25T16:17:40.613Z,174.25
2023-05-25T16:19:14.071Z,159.50
2023-05-25T16:20:47.199Z,169.25
2023-05-25T16:22:19.767Z,170.25
2023-05-25T16:23:51.666Z,159.50
2023-05-25T16:25:23.557Z,162.25
2023-05-25T16:26:55.635Z,157.75
2023-05-25T16:28:28.108Z,157.00
2023-05-25T16:30:00.504Z,161.25
2023-05-25T16:31:34.804Z,140.75
2023-05-25T16:33:06.835Z,154.25
2023-05-25T16:34:38.974Z,140.50
2023-05-25T16:36:13.040Z,145.25
2023-05-25T16:37:45.760Z,148.75
2023-05-25T16:39:17.835Z,143.50
2023-05-25T16:40:49.932Z,148.00
2023-05-25T16:42:25.295Z,138.50
2023-05-25T16:43:57.786Z,145.25
2023-05-25T16:45:29.883Z,142.50
2023-05-25T16:47:01.909Z,133.25
2023-05-25T16:48:33.930Z,148.25
2023-05-25T16:50:06.652Z,128.75
2023-05-25T16:51:38.655Z,128.75
2023-05-25T16:53:10.937Z,125.50
2023-05-25T16:54:42.866Z,124.25
2023-05-25T16:56:15.334Z,126.00
2023-05-25T16:57:47.318Z,118.00
2023-05-25T16:59:19.255Z,130.25
2023-05-25T17:00:51.346Z,120.40
2023-05-25T17:02:23.528Z,126.00
2023-05-25T17:03:55.778Z,105.20
2023-05-25T17:05:27.892Z,116.00
2023-05-25T17:06:59.774Z,146.50
2023-05-25T17:08:31.816Z,134.75
2023-05-25T17:10:04.221Z,126.75
2023-05-25T17:11:36.102Z,113.60
2023-05-25T17:13:08.076Z,115.00
2023-05-25T17:14:40.410Z,109.80
2023-05-25T17:16:12.935Z,119.25
2023-05-25T17:17:45.200Z,116.25
2023-05-25T17:19:17.251Z,125.00
2023-05-25T17:20:49.250Z,119.75
2023-05-25T17:22:21.971Z,108.00
2023-05-25T17:23:53.975Z,116.00
2023-05-25T17:25:26.062Z,115.00
2023-05-25T17:26:58.072Z,112.80
2023-05-25T17:28:31.404Z,116.60
2023-05-25T17:30:05.094Z,104.80
2023-05-25T17:31:37.061Z,105.80
2023-05-25T17:33:09.228Z,103.00
2023-05-25T17:34:41.621Z,97.80
2023-05-25T17:36:13.643Z,100.50
2023-05-25T17:37:45.927Z,101.00
2023-05-25T17:39:18.600Z,97.00
2023-05-25T17:40:50.977Z,104.40
2023-05-25T17:42:23.271Z,90.75
2023-05-25T17:43:55.622Z,83.00
2023-05-25T17:45:28.208Z,82.50
2023-05-25T17:47:00.218Z,86.25
2023-05-25T17:48:32.121Z,95.50
2023-05-25T17:50:05.215Z,94.00
2023-05-25T17:51:37.972Z,97.80
2023-05-25T17:53:10.345Z,101.60
2023-05-25T17:54:42.532Z,105.50
2023-05-25T17:56:14.818Z,109.40
2023-05-25T17:57:46.873Z,96.25
2023-05-25T17:59:18.863Z,94.50
2023-05-25T18:00:50.963Z,88.75
2023-05-25T18:02:23.412Z,89.50
2023-05-25T18:03:55.649Z,88.50
2023-05-25T18:05:27.910Z,88.50
2023-05-25T18:06:59.939Z,89.00
2023-05-25T18:08:31.857Z,89.25
2023-05-25T18:10:04.093Z,68.00
2023-05-25T18:11:36.900Z,87.25
2023-05-25T18:13:09.052Z,74.25
2023-05-25T18:14:40.945Z,83.25
2023-05-25T18:16:12.950Z,76.00
2023-05-25T18:17:44.868Z,80.25
2023-05-25T18:19:18.562Z,78.50
2023-05-25T18:20:51.166Z,72.50
2023-05-25T18:22:23.136Z,77.75
2023-05-25T18:23:55.088Z,80.50
2023-05-25T18:25:26.977Z,64.50
2023-05-25T18:27:03.760Z,73.00
2023-05-25T18:28:35.738Z,69.00
2023-05-25T18:30:08.355Z,71.50
2023-05-25T18:31:45.847Z,82.75
2023-05-25T18:33:17.918Z,80.75
2023-05-25T18:34:49.835Z,84.00
2023-05-25T18:36:21.717Z,87.50
2023-05-25T18:37:53.737Z,77.00
2023-05-25T18:39:26.385Z,83.00
2023-05-25T18:40:58.297Z,74.25
2023-05-25T18:42:30.317Z,80.25
2023-05-25T18:44:02.256Z,81.75
2023-05-25T18:45:34.154Z,83.25
2023-05-25T18:47:06.605Z,72.25
2023-05-25T18:48:38.583Z,80.00
2023-05-25T18:50:12.061Z,76.75
2023-05-25T18:51:44.008Z,74.75
2023-05-25T18:53:16.129Z,77.25
2023-05-25T18:54:49.040Z,82.50
2023-05-25T18:56:21.851Z,91.25
2023-05-25T18:57:54.196Z,83.25
2023-05-25T18:59:26.251Z,83.75
2023-05-25T19:00:58.151Z,81.25
2023-05-25T19:02:30.646Z,82.00
2023-05-25T19:04:02.810Z,73.25
2023-05-25T19:05:35.184Z,79.25
2023-05-25T19:07:07.492Z,91.00
2023-05-25T19:08:39.451Z,89.25
2023-05-25T19:10:11.365Z,88.75
2023-05-25T19:11:43.337Z,84.50
2023-05-25T19:13:15.185Z,83.50
2023-05-25T19:14:47.178Z,91.50
2023-05-25T19:16:19.241Z,102.00
2023-05-25T19:17:51.340Z,106.60
2023-05-25T19:19:23.252Z,114.25
2023-05-25T19:20:55.200Z,107.00
2023-05-25T19:22:27.202Z,118.60
2023-05-25T19:23:59.318Z,107.40
2023-05-25T19:25:31.348Z,102.60
2023-05-25T19:27:04.005Z,103.80
2023-05-25T19:28:36.075Z,97.25
2023-05-25T19:30:08.325Z,95.00
2023-05-25T19:31:40.269Z,96.00
2023-05-25T19:33:12.342Z,92.25
2023-05-25T19:34:44.296Z,99.75
2023-05-25T19:36:16.282Z,83.75
2023-05-25T19:37:48.178Z,82.50
2023-05-25T19:39:20.284Z,84.00
2023-05-25T19:40:52.207Z,78.00
2023-05-25T19:42:24.076Z,85.00
2023-05-25T19:43:56.021Z,70.50
2023-05-25T19:45:28.001Z,74.25
2023-05-25T19:47:00.047Z,71.50
2023-05-25T19:48:32.155Z,114.40
2023-05-25T19:50:04.380Z,103.20
2023-05-25T19:51:37.468Z,97.00
2023-05-25T19:53:09.466Z,116.80
2023-05-25T19:54:41.454Z,102.00
2023-05-25T19:56:13.446Z,87.75
2023-05-25T19:57:45.382Z,94.00
2023-05-25T19:59:17.280Z,88.25
2023-05-25T20:00:49.228Z,89.25
2023-05-25T20:02:21.647Z,85.00
2023-05-25T20:03:53.764Z,85.50
2023-05-25T20:05:25.707Z,88.50
2023-05-25T20:06:57.722Z,90.25
2023-05-25T20:08:29.615Z,91.50
2023-05-25T20:10:01.686Z,88.00
2023-05-25T20:11:33.594Z,97.33
2023-05-25T20:13:06.649Z,90.50
2023-05-25T20:14:38.556Z,96.75
2023-05-25T20:16:10.782Z,91.25
2023-05-25T20:17:42.771Z,86.00
2023-05-25T20:19:14.770Z,90.75
2023-05-25T20:20:46.797Z,91.25
2023-05-25T20:22:18.830Z,80.00
2023-05-25T20:23:51.046Z,86.75
2023-05-25T20:25:22.960Z,80.00
2023-05-25T20:26:56.999Z,90.25
2023-05-25T20:28:29.064Z,77.75
2023-05-25T20:30:00.995Z,78.50
2023-05-25T20:31:32.866Z,80.75
2023-05-25T20:33:04.861Z,93.00
2023-05-25T20:34:36.909Z,106.50
2023-05-25T20:36:08.880Z,107.00
2023-05-25T20:37:42.156Z,106.00
2023-05-25T20:39:14.224Z,104.00
2023-05-25T20:40:46.201Z,109.25
2023-05-25T20:42:18.184Z,113.40
2023-05-25T20:43:50.110Z,105.80
2023-05-25T20:45:22.070Z,105.40
2023-05-25T20:46:54.465Z,103.60
2023-05-25T20:48:26.358Z,104.20
2023-05-25T20:49:58.373Z,102.20
2023-05-25T20:51:31.359Z,92.50
2023-05-25T20:53:03.394Z,106.20
2023-05-25T20:54:36.868Z,105.60
2023-05-25T20:56:08.792Z,109.20
2023-05-25T20:57:40.770Z,102.50
2023-05-25T20:59:12.834Z,97.20
2023-05-25T21:00:46.599Z,111.00
2023-05-25T21:02:18.650Z,110.40
2023-05-25T21:03:50.967Z,103.40
2023-05-25T21:05:23.020Z,112.80
2023-05-25T21:06:54.920Z,105.40
2023-05-25T21:08:27.282Z,107.40
2023-05-25T21:10:02.924Z,102.80
2023-05-25T21:11:34.845Z,105.60
2023-05-25T21:13:06.950Z,105.20
2023-05-25T21:14:38.929Z,107.00
2023-05-25T21:16:11.052Z,100.50
2023-05-25T21:17:43.051Z,94.75
2023-05-25T21:19:15.045Z,101.75
2023-05-25T21:20:46.976Z,97.40
2023-05-25T21:22:19.055Z,105.40
2023-05-25T21:23:51.178Z,108.80
2023-05-25T21:25:23.138Z,116.00
2023-05-25T21:26:55.057Z,120.75
2023-05-25T21:28:27.023Z,122.50
2023-05-25T21:29:59.055Z,125.00
2023-05-25T21:31:30.942Z,127.50
2023-05-25T21:33:02.988Z,120.75
2023-05-25T21:34:34.955Z,114.25
2023-05-25T21:36:08.019Z,122.75
2023-05-25T21:37:40.029Z,114.25
2023-05-25T21:39:12.004Z,114.00
2023-05-25T21:40:43.999Z,120.50
2023-05-25T21:42:16.083Z,118.25
2023-05-25T21:43:48.011Z,128.50
2023-05-25T21:45:20.324Z,116.75
2023-05-25T21:46:52.236Z,126.75
2023-05-25T21:48:24.457Z,135.75
2023-05-25T21:49:56.970Z,126.75
2023-05-25T21:51:30.298Z,138.50
2023-05-25T21:53:02.209Z,125.25
2023-05-25T21:54:34.203Z,133.50
2023-05-25T21:56:06.361Z,134.75
2023-05-25T21:57:38.340Z,138.50
2023-05-25T21:59:10.226Z,123.00
2023-05-25T22:00:42.251Z,115.00
2023-05-25T22:02:14.284Z,124.75
2023-05-25T22:03:46.291Z,130.25
2023-05-25T22:05:18.264Z,126.00
2023-05-25T22:06:50.306Z,138.00
2023-05-25T22:08:22.341Z,110.50
2023-05-25T22:09:54.259Z,120.25
2023-05-25T22:11:26.236Z,131.50
2023-05-25T22:12:58.282Z,130.50
2023-05-25T22:14:30.198Z,107.50
2023-05-25T22:16:02.232Z,119.50
2023-05-25T22:17:34.422Z,128.25
2023-05-25T22:19:06.639Z,101.50
2023-05-25T22:20:39.141Z,118.50
2023-05-25T22:22:11.184Z,102.00
2023-05-25T22:23:43.188Z,112.80
2023-05-25T22:25:15.169Z,115.20
2023-05-25T22:26:47.016Z,105.20
2023-05-25T22:28:18.991Z,112.80
2023-05-25T22:29:51.131Z,107.20
2023-05-25T22:31:25.822Z,107.40
2023-05-25T22:32:57.838Z,93.80
2023-05-25T22:34:29.832Z,106.40
